Time;durP1;ratioP1;P1;durP2;ratioP2;P2;SDS_P1;SDS_P2;PMS_P1;PMS_P2;Temp;Humidity;BMP_temperature;BMP_pressure;BME280_temperature;BME280_humidity;BME280_pressure;Samples;Min_cycle;Max_cycle;Signal;HPM_P1;HPM_P2
2022/01/18 00:00:03;;;;;;;67.25;27.15;;;;;;;1.56;100.00;103641.44;5074813;28;20025;-72
2022/01/18 00:02:29;;;;;;;92.53;31.73;;;;;;;1.70;100.00;103643.53;5074869;28;20025;-72
2022/01/18 00:04:54;;;;;;;85.28;29.85;;;;;;;1.67;100.00;103644.97;5074402;28;20489;-71
2022/01/18 00:07:20;;;;;;;42.08;24.58;;;;;;;1.79;100.00;103650.31;5074639;28;20024;-72
2022/01/18 00:09:45;;;;;;;47.50;24.90;;;;;;;1.83;100.00;103653.28;5074246;28;20565;-71
2022/01/18 00:12:31;;;;;;;51.65;26.35;;;;;;;1.88;100.00;103657.22;5074511;28;20048;-72
2022/01/18 00:15:28;;;;;;;64.38;31.40;;;;;;;2.00;100.00;103653.84;5072945;28;20544;-72
2022/01/18 00:17:53;;;;;;;46.65;27.42;;;;;;;2.08;100.00;103656.31;5070727;28;20170;-72
2022/01/18 00:21:11;;;;;;;46.92;28.50;;;;;;;2.15;100.00;103662.03;5071644;28;20028;-71
2022/01/18 00:23:14;;;;;;;46.80;27.80;;;;;;;2.17;100.00;103655.22;5068816;28;20041;-72
2022/01/18 00:25:43;;;;;;;48.38;26.23;;;;;;;2.30;100.00;103655.50;5074313;28;20364;-71
2022/01/18 00:28:09;;;;;;;62.53;29.30;;;;;;;2.33;100.00;103647.91;5068891;28;20390;-71
2022/01/18 00:35:58;;;;;;;51.28;25.33;;;;;;;2.39;100.00;103665.78;5029450;28;20033;-71
2022/01/18 00:41:07;;;;;;;46.78;24.73;;;;;;;2.42;100.00;103680.00;5031920;28;20147;-71
2022/01/18 00:43:32;;;;;;;51.78;27.45;;;;;;;2.47;100.00;103667.31;5031675;28;20084;-71
2022/01/18 00:45:58;;;;;;;50.78;25.63;;;;;;;2.51;100.00;103673.72;5031795;28;20025;-71
2022/01/18 00:48:23;;;;;;;55.70;25.75;;;;;;;2.48;100.00;103674.38;5031734;28;20036;-71
2022/01/18 00:50:49;;;;;;;45.67;24.00;;;;;;;2.50;100.00;103677.09;5031654;28;20028;-72
2022/01/18 00:53:17;;;;;;;61.45;27.77;;;;;;;2.60;100.00;103679.69;5031666;28;20045;-72
2022/01/18 00:55:58;;;;;;;60.65;26.75;;;;;;;2.60;100.00;103685.81;5031557;28;20061;-72
2022/01/18 00:58:24;;;;;;;64.30;27.90;;;;;;;2.66;100.00;103695.84;5031500;28;20033;-71
2022/01/18 01:00:51;;;;;;;62.10;27.10;;;;;;;2.69;100.00;103689.97;5031402;28;20026;-71
2022/01/18 01:03:16;;;;;;;53.35;25.13;;;;;;;2.70;100.00;103695.31;5031431;28;20037;-71
2022/01/18 01:05:41;;;;;;;59.20;28.00;;;;;;;2.74;100.00;103691.28;5031330;28;20029;-71
2022/01/18 01:08:06;;;;;;;57.58;27.95;;;;;;;2.77;100.00;103687.19;5031433;28;20048;-71
2022/01/18 01:10:32;;;;;;;59.70;27.90;;;;;;;2.79;100.00;103683.00;5031061;28;20053;-71
2022/01/18 01:12:57;;;;;;;51.03;25.02;;;;;;;2.80;100.00;103683.94;5054914;28;20044;-70
2022/01/18 01:15:25;;;;;;;58.63;25.75;;;;;;;2.72;100.00;103683.31;5073272;28;20027;-70
2022/01/18 01:18:08;;;;;;;57.70;28.13;;;;;;;2.77;100.00;103686.28;5073187;28;20063;-70
2022/01/18 01:44:51;;;;;;;57.65;30.75;;;;;;;2.93;100.00;103680.63;5030610;28;20033;-70
2022/01/18 01:47:21;;;;;;;69.47;32.45;;;;;;;2.95;100.00;103666.84;5030891;28;20038;-70
2022/01/18 01:49:50;;;;;;;74.78;33.70;;;;;;;2.96;100.00;103676.53;5030685;28;20171;-70
2022/01/18 01:52:16;;;;;;;63.40;32.53;;;;;;;2.98;100.00;103668.81;5030482;28;20029;-71
2022/01/18 01:54:42;;;;;;;63.45;32.53;;;;;;;3.02;100.00;103681.34;5030859;28;20432;-70
2022/01/18 01:57:08;;;;;;;71.45;33.33;;;;;;;3.05;100.00;103672.84;5030492;28;20076;-70
2022/01/18 01:59:35;;;;;;;70.88;34.50;;;;;;;3.06;100.00;103678.19;5030624;28;20424;-70
2022/01/18 02:02:01;;;;;;;69.53;33.55;;;;;;;3.06;100.00;103679.88;5030628;28;20041;-70
2022/01/18 02:04:26;;;;;;;71.65;33.63;;;;;;;3.09;100.00;103677.53;5030389;28;20033;-70
2022/01/18 02:06:52;;;;;;;65.80;33.65;;;;;;;3.09;100.00;103677.53;5030187;28;20037;-70
2022/01/18 02:09:18;;;;;;;67.13;33.75;;;;;;;3.11;100.00;103684.69;5030343;28;20408;-71
2022/01/18 02:11:46;;;;;;;75.47;34.53;;;;;;;3.15;100.00;103688.47;5030441;28;20124;-71
2022/01/18 02:14:19;;;;;;;74.60;33.53;;;;;;;3.16;100.00;103694.59;5022143;28;20469;-72
2022/01/18 02:22:13;;;;;;;80.05;33.53;;;;;;;3.19;100.00;103689.63;5069279;28;20044;-72
2022/01/18 02:24:38;;;;;;;69.05;32.75;;;;;;;3.20;100.00;103683.59;5072283;28;20032;-71
2022/01/18 02:27:04;;;;;;;70.38;32.90;;;;;;;3.20;100.00;103687.13;5072362;28;20021;-72
2022/01/18 02:29:29;;;;;;;69.53;32.78;;;;;;;3.24;100.00;103680.47;5072457;28;20021;-71
2022/01/18 02:31:56;;;;;;;69.60;32.72;;;;;;;3.22;100.00;103682.94;5072117;28;20025;-71
2022/01/18 02:34:22;;;;;;;72.45;32.85;;;;;;;3.24;100.00;103675.22;5072250;28;20060;-72
2022/01/18 02:36:48;;;;;;;66.40;33.00;;;;;;;3.22;100.00;103674.16;5072683;28;20028;-71
2022/01/18 02:39:18;;;;;;;65.70;31.48;;;;;;;3.27;100.00;103672.84;5072178;28;20475;-72
2022/01/18 02:41:52;;;;;;;73.88;32.13;;;;;;;3.23;100.00;103670.78;5068540;28;20482;-71
2022/01/18 02:44:17;;;;;;;67.30;31.73;;;;;;;3.20;100.00;103660.97;5069054;28;20170;-72
2022/01/18 02:46:43;;;;;;;68.22;32.65;;;;;;;3.21;100.00;103661.91;5072319;28;20466;-72
2022/01/18 02:49:08;;;;;;;74.95;33.08;;;;;;;3.19;100.00;103661.78;5072202;28;20104;-71
2022/01/18 02:51:34;;;;;;;61.00;31.52;;;;;;;3.25;100.00;103666.59;5072882;28;20074;-72
2022/01/18 02:54:01;;;;;;;71.53;33.10;;;;;;;3.23;100.00;103670.78;5075923;28;20382;-72
2022/01/18 02:56:50;;;;;;;79.53;34.30;;;;;;;3.25;100.00;103670.13;5076078;28;20025;-72
2022/01/18 02:59:24;;;;;;;78.20;32.92;;;;;;;3.25;100.00;103667.50;5072316;28;20031;-72
2022/01/18 03:04:39;;;;;;;67.45;33.05;;;;;;;3.24;100.00;103667.38;5075690;28;20044;-72
2022/01/18 03:07:05;;;;;;;69.78;34.15;;;;;;;3.26;100.00;103673.63;5075996;28;20371;-72
2022/01/18 03:09:30;;;;;;;83.55;35.28;;;;;;;3.27;100.00;103667.63;5075455;28;20036;-72
2022/01/18 03:11:56;;;;;;;81.82;36.78;;;;;;;3.28;100.00;103667.75;5075458;28;20036;-72
2022/01/18 03:14:22;;;;;;;86.38;34.75;;;;;;;3.26;100.00;103668.41;5075908;28;20035;-72
2022/01/18 03:16:47;;;;;;;85.22;34.28;;;;;;;3.27;100.00;103668.53;5075427;28;20087;-72
2022/01/18 03:19:13;;;;;;;68.95;33.42;;;;;;;3.29;100.00;103673.88;5075836;28;20471;-72
2022/01/18 03:21:38;;;;;;;86.82;34.65;;;;;;;3.29;100.00;103677.41;5075298;28;20387;-72
2022/01/18 03:29:29;;;;;;;89.78;36.33;;;;;;;3.30;100.00;103686.16;5073850;28;20086;-70
2022/01/18 03:31:55;;;;;;;90.18;35.92;;;;;;;3.29;100.00;103682.66;5075644;28;20417;-68
2022/01/18 03:34:21;;;;;;;93.93;36.17;;;;;;;3.28;100.00;103686.03;5075121;28;20032;-70
2022/01/18 03:36:46;;;;;;;90.50;37.72;;;;;;;3.28;100.00;103679.91;5075068;28;20025;-71
2022/01/18 03:39:12;;;;;;;91.28;36.70;;;;;;;3.26;100.00;103686.69;5075112;28;20475;-70
2022/01/18 03:41:37;;;;;;;96.38;38.08;;;;;;;3.25;100.00;103687.53;5074950;28;20106;-70
2022/01/18 03:44:03;;;;;;;88.15;37.33;;;;;;;3.25;100.00;103684.91;5075005;28;20024;-71
2022/01/18 03:46:28;;;;;;;88.28;37.55;;;;;;;3.25;100.00;103674.44;5075147;28;20467;-70
2022/01/18 03:48:54;;;;;;;75.45;38.60;;;;;;;3.23;100.00;103676.00;5075255;28;20456;-70
2022/01/18 03:51:20;;;;;;;75.18;40.17;;;;;;;3.21;100.00;103678.50;5075061;28;20101;-71
2022/01/18 03:53:45;;;;;;;78.78;39.70;;;;;;;3.18;100.00;103672.13;5075062;28;20051;-71
2022/01/18 03:56:11;;;;;;;73.60;39.08;;;;;;;3.20;100.00;103688.84;5074708;28;20024;-71
2022/01/18 03:58:36;;;;;;;72.50;39.22;;;;;;;3.16;100.00;103684.16;5074916;28;20038;-70
2022/01/18 04:01:03;;;;;;;70.65;40.03;;;;;;;3.14;100.00;103690.16;5074566;28;20029;-70
2022/01/18 04:03:28;;;;;;;75.45;40.50;;;;;;;3.13;100.00;103695.25;5074124;28;20383;-70
2022/01/18 04:05:56;;;;;;;77.20;40.00;;;;;;;3.12;100.00;103702.22;5074606;28;20021;-70
2022/01/18 04:08:22;;;;;;;83.00;40.90;;;;;;;3.13;100.00;103697.88;5074435;28;20024;-72
2022/01/18 04:10:47;;;;;;;78.65;42.08;;;;;;;3.10;100.00;103701.19;5074090;28;20052;-72
2022/01/18 04:13:12;;;;;;;78.03;41.45;;;;;;;3.10;100.00;103701.19;5074588;28;20032;-72
2022/01/18 04:15:38;;;;;;;80.32;43.03;;;;;;;3.10;100.00;103700.25;5074284;28;20079;-72
2022/01/18 04:28:56;;;;;;;74.38;42.45;;;;;;;3.05;100.00;103707.72;5071802;28;20032;-72
2022/01/18 04:31:23;;;;;;;75.65;43.42;;;;;;;3.04;100.00;103713.72;5074159;28;20047;-71
2022/01/18 04:33:48;;;;;;;76.38;43.92;;;;;;;3.03;100.00;103703.16;5074076;28;20031;-71
2022/01/18 04:36:14;;;;;;;72.43;44.38;;;;;;;3.03;100.00;103709.31;5073934;28;20021;-71
2022/01/18 04:38:40;;;;;;;81.25;45.10;;;;;;;3.01;100.00;103705.66;5074339;28;20087;-71
2022/01/18 04:41:08;;;;;;;80.07;46.03;;;;;;;3.01;100.00;103704.75;5073842;28;20390;-72
2022/01/18 04:48:56;;;;;;;87.28;45.72;;;;;;;2.96;100.00;103704.38;5029654;28;20104;-72
2022/01/18 04:51:21;;;;;;;84.00;45.10;;;;;;;2.97;100.00;103709.72;5031534;28;20091;-71
2022/01/18 04:53:53;;;;;;;76.80;43.40;;;;;;;3.01;100.00;103710.88;5031463;28;20060;-71
2022/01/18 04:56:28;;;;;;;84.55;44.65;;;;;;;2.93;100.00;103712.88;5031584;28;20041;-72
2022/01/18 04:58:54;;;;;;;89.15;44.15;;;;;;;2.96;100.00;103712.22;5031547;28;20064;-71
2022/01/18 05:01:20;;;;;;;96.30;44.95;;;;;;;2.92;100.00;103711.03;5031345;28;20041;-71
2022/01/18 05:03:46;;;;;;;83.50;44.00;;;;;;;2.96;100.00;103717.44;5031341;28;20412;-71
2022/01/18 05:06:15;;;;;;;90.90;43.28;;;;;;;2.95;100.00;103723.44;5031404;28;20029;-71
2022/01/18 05:08:41;;;;;;;88.45;42.85;;;;;;;2.94;100.00;103711.16;5031348;28;20033;-71
2022/01/18 05:11:08;;;;;;;88.72;42.22;;;;;;;2.95;100.00;103721.75;5031130;28;20441;-71
2022/01/18 05:16:44;;;;;;;92.38;41.20;;;;;;;2.89;100.00;103722.97;5031166;28;20072;-71
2022/01/18 05:24:02;;;;;;;80.72;40.60;;;;;;;2.96;100.00;103722.69;5030873;28;20041;-71
2022/01/18 05:26:28;;;;;;;88.80;40.88;;;;;;;2.96;100.00;103723.56;5059893;28;20052;-72
2022/01/18 05:28:54;;;;;;;83.50;41.28;;;;;;;2.93;100.00;103718.09;5072998;28;20017;-71
2022/01/18 05:31:19;;;;;;;96.38;42.30;;;;;;;2.93;100.00;103722.44;5072882;28;20115;-71
2022/01/18 05:33:47;;;;;;;96.68;40.88;;;;;;;2.95;100.00;103723.44;5073103;28;20490;-71
2022/01/18 05:36:14;;;;;;;93.20;40.30;;;;;;;2.89;100.00;103726.47;5068898;28;20048;-71
2022/01/18 05:38:40;;;;;;;102.13;41.35;;;;;;;2.92;100.00;103726.72;5072788;28;20028;-71
2022/01/18 05:41:08;;;;;;;96.75;41.53;;;;;;;2.92;100.00;103725.81;5072948;28;20021;-71
2022/01/18 05:43:33;;;;;;;98.90;41.35;;;;;;;2.90;100.00;103724.78;5072664;28;20028;-71
2022/01/18 05:45:59;;;;;;;90.68;39.65;;;;;;;2.91;100.00;103724.00;5072703;28;20032;-71
2022/01/18 05:48:25;;;;;;;91.57;39.83;;;;;;;2.90;100.00;103722.19;5072907;28;20020;-72
2022/01/18 05:50:52;;;;;;;86.45;39.38;;;;;;;2.88;100.00;103716.81;5072883;28;20155;-72
2022/01/18 05:53:18;;;;;;;88.82;40.80;;;;;;;2.87;100.00;103708.84;5072722;28;20024;-72
2022/01/18 05:55:43;;;;;;;87.78;40.05;;;;;;;2.86;100.00;103709.66;5073009;28;20039;-72
2022/01/18 05:58:08;;;;;;;83.45;40.08;;;;;;;2.87;100.00;103714.06;5072805;28;20105;-72
2022/01/18 06:00:34;;;;;;;87.18;39.33;;;;;;;2.90;100.00;103714.34;5072752;28;20391;-72
2022/01/18 06:03:02;;;;;;;88.53;40.42;;;;;;;2.89;100.00;103722.97;5072528;28;20021;-72
2022/01/18 06:08:12;;;;;;;82.93;38.15;;;;;;;2.92;100.00;103717.97;5068572;28;20089;-72
2022/01/18 06:10:39;;;;;;;83.15;38.85;;;;;;;2.91;100.00;103717.09;5072619;28;20044;-72
2022/01/18 06:13:07;;;;;;;84.45;38.80;;;;;;;2.92;100.00;103723.22;5072620;28;20111;-72
2022/01/18 06:15:33;;;;;;;81.90;38.55;;;;;;;2.95;100.00;103720.84;5072280;28;20029;-72
2022/01/18 06:17:58;;;;;;;86.80;38.85;;;;;;;2.93;100.00;103719.81;5072427;28;20033;-72
2022/01/18 06:20:24;;;;;;;103.53;39.85;;;;;;;2.91;100.00;103724.00;5072602;28;20070;-72
2022/01/18 06:22:51;;;;;;;90.25;39.17;;;;;;;2.88;100.00;103713.28;5072208;28;20036;-72
2022/01/18 06:25:18;;;;;;;84.45;39.53;;;;;;;2.87;100.00;103721.91;5072571;28;20091;-72
2022/01/18 06:27:44;;;;;;;83.03;38.60;;;;;;;2.91;100.00;103724.91;5072660;28;20056;-70
2022/01/18 06:30:10;;;;;;;93.30;40.30;;;;;;;2.88;100.00;103723.75;5074893;28;20464;-72
2022/01/18 06:32:40;;;;;;;89.20;37.47;;;;;;;2.92;100.00;103728.44;5074069;28;20020;-72
2022/01/18 06:35:08;;;;;;;92.53;39.08;;;;;;;2.91;100.00;103724.00;5072866;28;20053;-73
2022/01/18 06:37:34;;;;;;;96.18;39.15;;;;;;;2.90;100.00;103715.25;5067997;28;20360;-72
2022/01/18 06:40:01;;;;;;;90.43;38.30;;;;;;;2.95;100.00;103715.63;5076139;28;20026;-71
2022/01/18 06:42:27;;;;;;;90.38;38.95;;;;;;;2.93;100.00;103707.66;5071340;28;20020;-71
2022/01/18 06:44:53;;;;;;;85.38;38.42;;;;;;;2.95;100.00;103713.00;5074760;28;20039;-73
2022/01/18 06:47:19;;;;;;;83.22;37.15;;;;;;;2.95;100.00;103721.75;5057391;28;20036;-72
2022/01/18 06:49:44;;;;;;;83.72;37.00;;;;;;;2.95;100.00;103715.63;5073364;28;20481;-72
2022/01/18 06:52:10;;;;;;;83.50;36.80;;;;;;;2.95;100.00;103716.50;5066171;28;20035;-73
2022/01/18 06:54:35;;;;;;;91.75;37.47;;;;;;;2.95;100.00;103726.06;5069911;28;20029;-72
2022/01/18 06:57:01;;;;;;;90.47;38.60;;;;;;;2.96;100.00;103725.28;5076623;28;20115;-71
2022/01/18 06:59:26;;;;;;;96.18;38.75;;;;;;;2.96;100.00;103727.91;5071366;28;20033;-72
2022/01/18 07:01:52;;;;;;;94.60;38.47;;;;;;;2.95;100.00;103728.69;5071593;28;20446;-73
2022/01/18 07:04:17;;;;;;;98.65;38.08;;;;;;;2.96;100.00;103726.19;5069953;28;20025;-73
2022/01/18 07:06:45;;;;;;;87.38;36.00;;;;;;;2.98;100.00;103726.31;5077072;28;20063;-73
2022/01/18 07:09:11;;;;;;;92.57;38.03;;;;;;;2.98;100.00;103731.53;5068834;28;20079;-74
2022/01/18 07:11:36;;;;;;;95.93;38.85;;;;;;;2.99;100.00;103733.38;5069875;28;20067;-72
2022/01/18 07:14:01;;;;;;;100.40;37.40;;;;;;;3.00;100.00;103749.97;5068291;28;20103;-72
2022/01/18 07:16:27;;;;;;;106.60;39.22;;;;;;;3.01;100.00;103737.00;5067744;28;20120;-72
2022/01/18 07:18:52;;;;;;;90.85;36.85;;;;;;;3.04;100.00;103747.72;5071591;28;20021;-73
2022/01/18 07:21:17;;;;;;;98.75;37.92;;;;;;;3.08;100.00;103746.28;5072533;28;20032;-72
2022/01/18 07:23:43;;;;;;;97.53;38.22;;;;;;;3.07;100.00;103739.22;5071060;28;20790;-73
2022/01/18 07:26:08;;;;;;;99.53;37.40;;;;;;;3.09;100.00;103743.78;5070108;28;20756;-73
2022/01/18 07:28:33;;;;;;;97.85;38.55;;;;;;;3.11;100.00;103746.53;5069517;28;20020;-73
2022/01/18 07:31:00;;;;;;;96.10;37.92;;;;;;;3.11;100.00;103744.81;5069570;28;20027;-71
2022/01/18 07:33:25;;;;;;;97.90;38.58;;;;;;;3.13;100.00;103758.00;5070585;28;20469;-71
2022/01/18 07:35:50;;;;;;;105.00;38.20;;;;;;;3.13;100.00;103747.53;5068261;28;20111;-72
2022/01/18 07:38:19;;;;;;;102.32;39.03;;;;;;;3.13;100.00;103755.38;5064650;28;20155;-72
2022/01/18 07:40:46;;;;;;;103.10;38.47;;;;;;;3.14;100.00;103752.00;5068081;28;20021;-74
2022/01/18 07:43:17;;;;;;;104.65;39.63;;;;;;;3.13;100.00;103748.47;5068489;28;20391;-73
2022/01/18 07:45:44;;;;;;;95.28;39.38;;;;;;;3.15;100.00;103751.22;5064936;28;20027;-72
2022/01/18 07:48:11;;;;;;;105.63;38.55;;;;;;;3.16;100.00;103758.28;5068150;28;20386;-73
2022/01/18 07:50:37;;;;;;;92.65;37.65;;;;;;;3.17;100.00;103760.09;5062326;28;20029;-72
2022/01/18 07:53:02;;;;;;;98.75;38.85;;;;;;;3.20;100.00;103760.34;5067421;28;20036;-72
2022/01/18 07:55:27;;;;;;;101.45;38.92;;;;;;;3.20;100.00;103767.28;5065895;28;20468;-72
2022/01/18 07:57:54;;;;;;;99.43;37.78;;;;;;;3.21;100.00;103761.25;5070662;28;20444;-73
2022/01/18 08:00:19;;;;;;;97.03;38.05;;;;;;;3.23;100.00;103773.69;5064104;28;20396;-72
2022/01/18 08:02:45;;;;;;;102.03;39.30;;;;;;;3.24;100.00;103770.25;5067021;28;20032;-73
2022/01/18 08:05:12;;;;;;;109.60;40.95;;;;;;;3.24;100.00;103765.03;5063649;28;20217;-72
2022/01/18 08:07:37;;;;;;;104.25;39.50;;;;;;;3.27;100.00;103764.38;5067140;28;20090;-72
2022/01/18 08:10:05;;;;;;;106.97;38.35;;;;;;;3.29;100.00;103773.22;5067041;28;20045;-71
2022/01/18 08:12:30;;;;;;;105.38;39.30;;;;;;;3.28;100.00;103768.81;5065895;28;20020;-72
2022/01/18 08:15:02;;;;;;;123.80;39.55;;;;;;;3.31;100.00;103769.06;5067852;28;20029;-72
2022/01/18 08:17:27;;;;;;;108.63;40.35;;;;;;;3.32;100.00;103770.91;5073425;28;20085;-71
2022/01/18 08:19:53;;;;;;;126.60;39.58;;;;;;;3.32;100.00;103763.06;5071272;28;20466;-72
2022/01/18 08:22:18;;;;;;;110.60;41.00;;;;;;;3.33;100.00;103763.94;5077029;28;20523;-71
2022/01/18 08:24:43;;;;;;;109.65;41.35;;;;;;;3.34;100.00;103760.56;5078698;28;20071;-70
2022/01/18 08:27:09;;;;;;;116.07;40.30;;;;;;;3.35;100.00;103765.91;5065469;28;20032;-69
2022/01/18 08:29:36;;;;;;;123.50;41.72;;;;;;;3.35;100.00;103760.69;5076992;28;20556;-70
2022/01/18 08:32:05;;;;;;;131.48;42.67;;;;;;;3.37;100.00;103759.09;5066186;28;20033;-69
2022/01/18 08:34:31;;;;;;;122.18;42.95;;;;;;;3.39;100.00;103759.22;5072736;28;20035;-70
2022/01/18 08:36:56;;;;;;;128.65;44.35;;;;;;;3.42;100.00;103752.53;5069751;28;20048;-70
2022/01/18 08:39:22;;;;;;;115.57;42.72;;;;;;;3.46;100.00;103746.72;5075708;28;20025;-69
2022/01/18 08:41:48;;;;;;;131.13;44.13;;;;;;;3.48;100.00;103745.16;5071923;28;20056;-70
2022/01/18 08:44:14;;;;;;;118.03;42.40;;;;;;;3.57;100.00;103760.69;5070570;28;20035;-71
2022/01/18 08:46:40;;;;;;;104.50;40.72;;;;;;;3.61;100.00;103751.34;5074220;28;20028;-71
2022/01/18 08:49:06;;;;;;;100.53;40.95;;;;;;;3.65;100.00;103756.06;5070565;28;20031;-71
2022/01/18 08:51:31;;;;;;;106.95;40.53;;;;;;;3.69;100.00;103763.34;5072586;28;20405;-71
2022/01/18 08:53:56;;;;;;;106.88;38.92;;;;;;;3.73;100.00;103768.06;5067652;28;20093;-71
2022/01/18 08:56:22;;;;;;;110.35;39.75;;;;;;;3.76;100.00;103759.53;5075532;28;20120;-71
2022/01/18 08:58:48;;;;;;;96.35;37.60;;;;;;;3.80;100.00;103764.19;5065077;28;20391;-71
2022/01/18 09:01:15;;;;;;;98.55;38.28;;;;;;;3.80;100.00;103767.75;5069147;28;20028;-70
2022/01/18 09:03:41;;;;;;;91.78;36.67;;;;;;;3.81;100.00;103763.41;5066206;28;20104;-70
2022/01/18 09:06:07;;;;;;;93.40;38.80;;;;;;;3.86;100.00;103764.69;5064193;28;20057;-70
2022/01/18 09:08:37;;;;;;;104.35;39.70;;;;;;;3.83;100.00;103757.50;5073408;28;20450;-72
2022/01/18 09:11:04;;;;;;;99.03;40.05;;;;;;;3.92;100.00;103761.66;5073160;28;20045;-70
2022/01/18 09:13:31;;;;;;;105.55;41.28;;;;;;;3.94;100.00;103762.66;5073173;28;20086;-70
2022/01/18 09:15:56;;;;;;;105.28;41.03;;;;;;;4.00;100.00;103763.13;5073100;28;20066;-71
2022/01/18 09:18:22;;;;;;;96.75;39.42;;;;;;;4.03;100.00;103773.84;5073249;28;20406;-70
2022/01/18 09:20:47;;;;;;;102.22;40.30;;;;;;;4.09;100.00;103774.34;5066589;28;20043;-72
2022/01/18 09:23:13;;;;;;;99.38;40.90;;;;;;;4.18;100.00;103769.81;5062930;28;20027;-75
2022/01/18 09:25:39;;;;;;;90.55;38.80;;;;;;;4.26;100.00;103770.38;5061681;28;20116;-72
2022/01/18 09:28:05;;;;;;;88.65;37.53;;;;;;;4.32;100.00;103775.19;5068019;28;20561;-71
2022/01/18 09:30:31;;;;;;;87.00;36.38;;;;;;;4.29;100.00;103774.97;5068017;28;20035;-71
2022/01/18 09:32:58;;;;;;;83.78;37.22;;;;;;;4.30;100.00;103782.94;5069885;28;20464;-71
2022/01/18 09:35:24;;;;;;;81.35;37.40;;;;;;;4.31;100.00;103779.53;5066612;28;20028;-70
2022/01/18 09:37:50;;;;;;;80.53;36.67;;;;;;;4.32;100.00;103790.91;5065140;28;20491;-71
2022/01/18 09:40:19;;;;;;;82.85;37.33;;;;;;;4.40;100.00;103784.56;5062752;28;20425;-71
2022/01/18 09:42:51;;;;;;;91.28;40.88;;;;;;;4.44;100.00;103784.00;5071942;28;20121;-71
2022/01/18 09:45:17;;;;;;;81.18;38.22;;;;;;;4.47;100.00;103785.91;5075803;28;20024;-71
2022/01/18 09:47:45;;;;;;;81.70;37.20;;;;;;;4.46;100.00;103790.25;5074073;28;20074;-71
2022/01/18 09:50:14;;;;;;;82.05;37.63;;;;;;;4.46;100.00;103792.88;5069668;28;20049;-71
2022/01/18 09:52:39;;;;;;;82.32;37.83;;;;;;;4.51;100.00;103787.97;5072417;28;20099;-71
2022/01/18 09:55:07;;;;;;;75.50;36.63;;;;;;;4.58;100.00;103798.13;5072751;28;20059;-71
2022/01/18 09:57:34;;;;;;;82.47;36.38;;;;;;;4.62;100.00;103794.97;5072923;28;20021;-71
2022/01/18 09:59:59;;;;;;;70.30;33.55;;;;;;;4.71;100.00;103799.97;5072507;28;20056;-71
2022/01/18 10:02:25;;;;;;;70.47;33.35;;;;;;;4.77;100.00;103792.56;5072769;28;20055;-71
2022/01/18 10:04:53;;;;;;;67.10;32.78;;;;;;;4.77;100.00;103789.94;5072330;28;20028;-71
2022/01/18 10:07:31;;;;;;;70.55;32.42;;;;;;;4.85;100.00;103796.69;5072543;28;20029;-71
2022/01/18 10:09:59;;;;;;;60.70;30.27;;;;;;;4.88;100.00;103798.63;5072229;28;20049;-71
2022/01/18 10:12:24;;;;;;;65.28;30.02;;;;;;;4.91;100.00;103800.56;5072997;28;20379;-71
2022/01/18 10:14:53;;;;;;;75.18;32.35;;;;;;;4.88;100.00;103806.50;5072443;28;20035;-71
2022/01/18 10:17:39;;;;;;;72.45;33.05;;;;;;;4.88;100.00;103802.16;5072407;28;20036;-71
2022/01/18 10:20:08;;;;;;;69.55;33.60;;;;;;;4.90;100.00;103799.66;5068566;28;20020;-72
2022/01/18 10:22:41;;;;;;;64.55;31.77;;;;;;;4.97;100.00;103798.41;5068448;28;20032;-72
2022/01/18 10:25:16;;;;;;;;;;;;;;;5.10;100.00;103794.97;5069018;28;20028;-72
2022/01/18 10:27:42;;;;;;;77.32;32.75;;;;;;;5.12;100.00;103794.28;5069613;28;20290;-72
2022/01/18 10:30:15;;;;;;;75.07;34.65;;;;;;;5.37;100.00;103788.22;5072361;28;20021;-71
2022/01/18 10:32:42;;;;;;;67.40;32.83;;;;;;;5.50;100.00;103785.66;5066960;28;20025;-72
2022/01/18 10:35:10;;;;;;;68.43;32.22;;;;;;;5.68;100.00;103787.78;5073369;28;20481;-71
2022/01/18 10:37:41;;;;;;;63.92;31.38;;;;;;;5.85;100.00;103789.00;5067442;28;20025;-73
2022/01/18 10:40:26;;;;;;;60.83;31.40;;;;;;;6.16;100.00;103778.97;5070852;28;20016;-72
2022/01/18 10:42:53;;;;;;;52.55;28.95;;;;;;;6.36;100.00;103788.19;5065721;28;20032;-70
2022/01/18 10:45:35;;;;;;;52.53;28.35;;;;;;;6.71;100.00;103786.16;5075533;28;20064;-73
2022/01/18 10:48:15;;;;;;;47.97;26.15;;;;;;;7.49;100.00;103782.47;5071724;28;20439;-71
2022/01/18 10:50:46;;;;;;;43.50;22.98;;;;;;;7.73;100.00;103777.84;5070107;28;20024;-71
2022/01/18 10:53:16;;;;;;;45.95;24.20;;;;;;;7.96;100.00;103765.19;5071720;28;20086;-70
2022/01/18 10:55:43;;;;;;;42.20;22.33;;;;;;;8.44;100.00;103773.34;5073698;28;20082;-71
2022/01/18 10:58:18;;;;;;;41.03;21.83;;;;;;;9.21;100.00;103757.63;5066410;28;20032;-70
2022/01/18 11:00:44;;;;;;;41.53;20.92;;;;;;;9.86;100.00;103765.53;5072977;28;20052;-72
2022/01/18 11:03:16;;;;;;;40.08;20.65;;;;;;;10.29;100.00;103760.81;5067298;28;20387;-69
2022/01/18 11:05:44;;;;;;;38.10;20.05;;;;;;;10.68;100.00;103752.22;5068242;28;20025;-71
2022/01/18 11:08:09;;;;;;;40.13;19.42;;;;;;;11.40;100.00;103754.81;5072536;28;20067;-71
2022/01/18 11:10:40;;;;;;;36.42;18.10;;;;;;;11.76;100.00;103752.03;5072836;28;20081;-71
2022/01/18 11:13:11;;;;;;;37.92;16.83;;;;;;;11.97;94.23;103751.22;5078932;28;20089;-71
2022/01/18 11:15:40;;;;;;;34.58;15.43;;;;;;;12.14;93.10;103755.53;5071915;28;20487;-71
2022/01/18 11:18:14;;;;;;;36.47;16.13;;;;;;;12.43;89.01;103763.84;5079378;28;20033;-72
2022/01/18 11:20:43;;;;;;;34.95;16.45;;;;;;;13.09;86.22;103757.72;5073892;28;20435;-74
2022/01/18 11:23:09;;;;;;;34.58;14.73;;;;;;;13.46;82.17;103753.91;5079886;28;20462;-72
2022/01/18 11:25:37;;;;;;;32.33;14.82;;;;;;;13.89;82.18;103755.53;5071563;28;20037;-73
2022/01/18 11:28:04;;;;;;;34.45;15.23;;;;;;;14.27;76.57;103756.00;5077072;28;20360;-72
2022/01/18 11:30:32;;;;;;;33.58;14.70;;;;;;;14.53;75.35;103749.75;5073334;28;20082;-71
2022/01/18 11:32:59;;;;;;;34.33;13.48;;;;;;;14.56;71.94;103750.78;5070491;28;20032;-73
2022/01/18 11:35:47;;;;;;;33.60;14.70;;;;;;;14.98;74.13;103739.75;5075060;28;20024;-73
2022/01/18 11:38:34;;;;;;;32.95;14.80;;;;;;;15.06;71.38;103739.09;5075054;28;20108;-73
2022/01/18 11:40:59;;;;;;;35.13;14.77;;;;;;;14.92;68.00;103738.66;5072211;28;20064;-71
2022/01/18 11:43:43;;;;;;;30.60;13.13;;;;;;;14.67;70.37;103732.53;5075199;28;20051;-71
2022/01/18 11:46:30;;;;;;;30.67;12.20;;;;;;;14.71;69.97;103730.84;5075139;28;20078;-74
2022/01/18 11:49:08;;;;;;;32.20;12.95;;;;;;;14.82;72.28;103726.78;5071985;28;20103;-71
2022/01/18 11:51:39;;;;;;;30.05;11.93;;;;;;;15.38;67.42;103723.16;5075136;28;20425;-69
2022/01/18 11:54:20;;;;;;;29.42;11.60;;;;;;;16.15;67.36;103736.97;5074762;28;20039;-74
2022/01/18 11:56:46;;;;;;;28.73;11.20;;;;;;;16.58;56.84;103730.94;5074987;28;20032;-75
2022/01/18 11:59:20;;;;;;;28.80;9.80;;;;;;;16.88;56.67;103725.47;5074870;28;20024;-73
2022/01/18 12:01:46;;;;;;;29.75;9.50;;;;;;;17.05;55.22;103731.19;5074623;28;20656;-72
2022/01/18 12:04:11;;;;;;;27.60;9.93;;;;;;;17.10;54.28;103731.31;5074634;28;20063;-75
2022/01/18 12:06:45;;;;;;;27.30;9.55;;;;;;;17.44;56.07;103730.28;5074766;28;20060;-75
2022/01/18 12:09:39;;;;;;;28.17;9.25;;;;;;;18.02;54.96;103721.66;5074728;28;20024;-75
2022/01/18 12:12:09;;;;;;;26.35;8.77;;;;;;;17.88;49.93;103716.00;5072039;28;20056;-75
2022/01/18 12:14:34;;;;;;;27.60;8.60;;;;;;;18.15;48.52;103714.75;5074896;28;20051;-75
2022/01/18 12:17:14;;;;;;;27.50;9.32;;;;;;;18.39;50.66;103715.19;5074617;28;20020;-75
2022/01/18 12:19:44;;;;;;;27.00;9.07;;;;;;;18.62;47.72;103709.31;5074284;28;20474;-74
2022/01/18 12:22:11;;;;;;;26.33;8.55;;;;;;;19.17;44.79;103714.63;5074088;28;20107;-75
2022/01/18 12:24:36;;;;;;;27.42;8.55;;;;;;;19.39;44.02;103721.16;5074060;28;20494;-75